Time;durP1;ratioP1;P1;durP2;ratioP2;P2;SDS_P1;SDS_P2;PMS_P1;PMS_P2;Temp;Humidity;BMP_temperature;BMP_pressure;BME280_temperature;BME280_humidity;BME280_pressure;Samples;Min_cycle;Max_cycle;Signal;HPM_P1;HPM_P2
2022/06/18 00:00:23;;;;;;;1999.90;999.90;;;15.70;83.90;;;;;;5030955;28;20143;-81
2022/06/18 00:02:49;;;;;;;1999.90;999.90;;;15.70;83.40;;;;;;5037680;28;20099;-84
2022/06/18 00:05:19;;;;;;;1999.90;999.90;;;15.60;87.80;;;;;;5032385;28;20512;-81
2022/06/18 00:07:48;;;;;;;1999.90;999.90;;;15.50;89.90;;;;;;5029566;28;20061;-80
2022/06/18 00:10:18;;;;;;;1999.90;999.90;;;15.40;91.50;;;;;;5029371;28;20033;-80
2022/06/18 00:15:32;;;;;;;1999.90;999.90;;;15.10;95.60;;;;;;5039781;28;20408;-81
2022/06/18 00:17:59;;;;;;;1999.90;999.90;;;15.00;95.00;;;;;;5041680;28;20075;-80
2022/06/18 00:20:27;;;;;;;1999.90;999.90;;;14.90;96.10;;;;;;5038616;28;20489;-81
2022/06/18 00:22:56;;;;;;;1999.90;999.90;;;14.90;95.20;;;;;;5032691;28;20534;-82
2022/06/18 00:25:33;;;;;;;1999.90;999.90;;;15.00;95.80;;;;;;5065584;28;20021;-81
2022/06/18 00:27:59;;;;;;;1999.90;999.90;;;15.10;94.60;;;;;;5029375;28;20108;-80
2022/06/18 00:30:28;;;;;;;1999.90;999.90;;;15.00;92.50;;;;;;5030291;28;20025;-83
2022/06/18 00:32:54;;;;;;;1999.90;999.90;;;15.00;94.50;;;;;;5032948;28;20022;-81
2022/06/18 00:35:20;;;;;;;1999.90;999.90;;;15.00;94.30;;;;;;5030662;28;20041;-81
2022/06/18 00:37:51;;;;;;;1999.90;999.90;;;15.00;93.10;;;;;;5013396;28;20037;-81
2022/06/18 00:40:39;;;;;;;1999.90;999.90;;;14.90;93.80;;;;;;5029449;28;20025;-81
2022/06/18 00:43:16;;;;;;;1999.90;999.90;;;14.80;94.50;;;;;;5035246;28;20087;-81
2022/06/18 00:45:42;;;;;;;1999.90;999.90;;;14.70;93.40;;;;;;5039176;28;20049;-81
2022/06/18 00:48:34;;;;;;;1999.90;999.90;;;14.70;95.60;;;;;;5029083;28;20037;-82
2022/06/18 00:51:41;;;;;;;1999.90;999.90;;;14.60;95.00;;;;;;5044649;28;20057;-81
2022/06/18 00:54:17;;;;;;;1999.90;999.90;;;14.70;94.50;;;;;;5000552;28;20120;-80
2022/06/18 00:56:51;;;;;;;1999.90;999.90;;;14.60;95.00;;;;;;5040572;28;20473;-81
2022/06/18 00:59:23;;;;;;;1999.90;999.90;;;14.50;93.30;;;;;;5039909;28;20555;-82
2022/06/18 01:01:50;;;;;;;1999.90;999.90;;;14.50;96.00;;;;;;5037551;28;20033;-80
2022/06/18 01:04:31;;;;;;;1999.90;999.90;;;14.50;93.60;;;;;;5035792;28;20033;-80
2022/06/18 01:07:25;;;;;;;1999.90;999.90;;;14.50;94.60;;;;;;5028508;28;20045;-80
2022/06/18 01:09:52;;;;;;;1999.90;999.90;;;14.50;94.00;;;;;;5029110;28;20048;-80
2022/06/18 01:12:19;;;;;;;1999.90;999.90;;;14.40;94.70;;;;;;5030029;28;20037;-88
2022/06/18 01:14:50;;;;;;;1999.90;999.90;;;14.40;94.70;;;;;;5044189;28;20167;-80
2022/06/18 01:17:16;;;;;;;1999.90;999.90;;;14.30;95.10;;;;;;5043725;28;20030;-80
2022/06/18 01:19:49;;;;;;;1999.90;999.90;;;14.30;96.00;;;;;;5046238;28;20025;-80
2022/06/18 01:22:45;;;;;;;1999.90;999.90;;;14.20;97.10;;;;;;5037918;28;20044;-86
2022/06/18 01:25:11;;;;;;;1999.90;999.90;;;14.10;97.30;;;;;;5041346;28;20061;-81
2022/06/18 01:27:38;;;;;;;1999.90;999.90;;;14.10;96.40;;;;;;5036166;28;20022;-80
2022/06/18 01:30:11;;;;;;;1999.90;999.90;;;14.10;95.10;;;;;;5020493;28;20037;-86
2022/06/18 01:32:37;;;;;;;1999.90;999.90;;;14.00;95.20;;;;;;5033206;28;20091;-80
2022/06/18 01:35:05;;;;;;;1999.90;999.90;;;14.00;96.80;;;;;;5034090;28;20029;-80
2022/06/18 01:37:31;;;;;;;1999.90;999.90;;;14.00;96.20;;;;;;5032462;28;20128;-81
2022/06/18 01:39:57;;;;;;;1999.90;999.90;;;14.00;96.30;;;;;;5029845;28;20466;-82
2022/06/18 01:42:26;;;;;;;1999.90;999.90;;;14.00;96.00;;;;;;5034490;28;20024;-81
2022/06/18 01:44:59;;;;;;;1999.90;999.90;;;14.00;96.40;;;;;;5035869;28;20021;-81
2022/06/18 01:47:42;;;;;;;1999.90;999.90;;;14.00;95.70;;;;;;5043042;28;20036;-80
2022/06/18 01:50:30;;;;;;;1999.90;999.90;;;14.10;95.50;;;;;;5040426;28;20025;-80
2022/06/18 01:53:19;;;;;;;1999.90;999.90;;;14.10;96.10;;;;;;5032471;28;20038;-81
2022/06/18 01:55:50;;;;;;;1999.90;999.90;;;13.90;96.60;;;;;;5040345;28;20040;-80
2022/06/18 01:58:25;;;;;;;1999.90;999.90;;;13.90;99.20;;;;;;5035758;28;20029;-80
2022/06/18 02:00:55;;;;;;;1999.90;999.90;;;13.70;99.90;;;;;;5036364;28;20052;-82
2022/06/18 02:03:21;;;;;;;1999.90;999.90;;;13.60;99.90;;;;;;5032575;28;20094;-80
2022/06/18 02:05:47;;;;;;;1999.90;999.90;;;13.60;98.40;;;;;;5035316;28;20029;-80
2022/06/18 02:08:16;;;;;;;1999.90;999.90;;;13.60;97.80;;;;;;5032618;28;20105;-80
2022/06/18 02:10:49;;;;;;;1999.90;999.90;;;13.60;96.20;;;;;;5033700;28;20022;-83
2022/06/18 02:13:17;;;;;;;1999.90;999.90;;;13.70;96.80;;;;;;5034797;28;20033;-80
2022/06/18 02:15:46;;;;;;;1999.90;999.90;;;13.70;96.40;;;;;;5044664;28;20067;-80
2022/06/18 02:18:14;;;;;;;1999.90;999.90;;;13.70;94.60;;;;;;5044538;28;20041;-81
2022/06/18 02:20:48;;;;;;;1999.90;999.90;;;13.70;97.40;;;;;;5025255;28;20033;-82
2022/06/18 02:23:17;;;;;;;1999.90;999.90;;;13.70;99.00;;;;;;5068251;28;20064;-81
2022/06/18 02:25:42;;;;;;;1999.90;999.90;;;13.50;99.70;;;;;;5039267;28;20493;-81
2022/06/18 02:28:23;;;;;;;1999.90;999.90;;;13.50;99.90;;;;;;5037433;28;20034;-80
2022/06/18 02:30:49;;;;;;;1999.90;999.90;;;13.50;99.10;;;;;;5038189;28;20033;-80
2022/06/18 02:33:45;;;;;;;1999.90;999.90;;;13.50;99.90;;;;;;5020287;28;20026;-81
2022/06/18 02:36:46;;;;;;;1999.90;999.90;;;13.50;99.40;;;;;;5040490;28;20030;-81
2022/06/18 02:39:15;;;;;;;;;;;13.60;99.90;;;;;;5008659;28;20053;-80
2022/06/18 02:41:42;;;;;;;1999.90;999.90;;;13.50;97.80;;;;;;5032407;28;19966;-83
2022/06/18 02:44:09;;;;;;;1999.90;999.90;;;13.50;97.80;;;;;;5037818;28;20123;-81
2022/06/18 02:46:35;;;;;;;1999.90;999.90;;;13.50;98.20;;;;;;5041655;28;20493;-80
2022/06/18 02:49:06;;;;;;;1999.90;999.90;;;13.40;99.10;;;;;;5044003;28;20052;-81
2022/06/18 02:51:32;;;;;;;;;;;13.30;99.90;;;;;;5039164;28;20492;-81
2022/06/18 02:53:58;;;;;;;1999.90;999.90;;;13.20;99.90;;;;;;5039457;28;19912;-81
2022/06/18 02:56:24;;;;;;;1999.90;999.90;;;13.20;99.90;;;;;;5032609;28;20040;-81
2022/06/18 02:58:50;;;;;;;1999.90;999.90;;;13.20;99.90;;;;;;5037761;28;20025;-81
2022/06/18 03:01:19;;;;;;;1999.90;999.90;;;13.10;99.90;;;;;;5014145;28;20046;-81
2022/06/18 03:03:47;;;;;;;1999.90;999.90;;;13.10;99.90;;;;;;5033045;28;20395;-82
2022/06/18 03:06:14;;;;;;;1999.90;999.90;;;13.10;99.90;;;;;;5017120;28;20388;-80
2022/06/18 03:08:41;;;;;;;1999.90;999.90;;;13.00;99.90;;;;;;5009085;28;20033;-80
2022/06/18 03:13:54;;;;;;;1999.90;999.90;;;13.00;99.90;;;;;;5036365;28;20043;-81
2022/06/18 03:16:22;;;;;;;1999.90;999.90;;;13.00;99.90;;;;;;5042588;28;20047;-81
2022/06/18 03:18:51;;;;;;;1999.90;999.90;;;13.00;99.90;;;;;;5035650;28;20026;-80
2022/06/18 03:21:23;;;;;;;1999.90;999.90;;;13.00;99.90;;;;;;5041323;28;20092;-90
2022/06/18 03:23:49;;;;;;;1999.90;999.90;;;13.10;99.90;;;;;;5034366;28;20108;-80
2022/06/18 03:26:16;;;;;;;1999.90;999.90;;;13.10;99.90;;;;;;5039045;28;20532;-81
2022/06/18 03:28:43;;;;;;;1999.90;999.90;;;13.10;99.90;;;;;;5037686;28;20036;-80
2022/06/18 03:31:09;;;;;;;1999.90;999.90;;;13.00;99.90;;;;;;5034891;28;20119;-82
2022/06/18 03:33:34;;;;;;;1999.90;999.90;;;13.00;99.90;;;;;;5030486;28;20533;-80
2022/06/18 03:36:03;;;;;;;1999.90;999.90;;;13.00;99.90;;;;;;5027903;28;20516;-80
2022/06/18 03:38:29;;;;;;;1999.90;999.90;;;13.10;99.90;;;;;;5028768;28;20033;-80
2022/06/18 03:40:55;;;;;;;1999.90;999.90;;;13.10;99.90;;;;;;5028812;28;20074;-80
2022/06/18 03:43:23;;;;;;;1999.90;999.90;;;13.20;99.90;;;;;;5041890;28;20492;-82
2022/06/18 03:45:54;;;;;;;1999.90;999.90;;;13.20;99.90;;;;;;5040536;28;20033;-80
2022/06/18 03:48:28;;;;;;;1999.90;999.90;;;13.30;99.90;;;;;;5042673;28;20489;-80
2022/06/18 03:50:54;;;;;;;1999.90;999.90;;;13.30;99.90;;;;;;5040515;28;20033;-84
2022/06/18 03:53:20;;;;;;;1999.90;999.90;;;13.30;99.90;;;;;;5033820;28;20183;-80
2022/06/18 03:55:46;;;;;;;1999.90;999.90;;;13.30;99.90;;;;;;5036700;28;20087;-80
2022/06/18 03:58:12;;;;;;;1999.90;999.90;;;13.40;99.90;;;;;;5033269;28;20046;-80
2022/06/18 04:00:39;;;;;;;1999.90;999.90;;;13.40;99.90;;;;;;5027669;28;20045;-80
2022/06/18 04:03:05;;;;;;;1999.90;999.90;;;13.50;99.90;;;;;;5033581;28;20034;-81
2022/06/18 04:05:33;;;;;;;1999.90;999.90;;;13.60;99.90;;;;;;5031174;28;20029;-81
2022/06/18 04:07:58;;;;;;;1999.90;999.90;;;13.70;99.90;;;;;;5031791;28;20029;-80
2022/06/18 04:10:24;;;;;;;1999.90;999.90;;;13.70;99.90;;;;;;5031496;28;20026;-80
2022/06/18 04:12:50;;;;;;;1999.90;999.90;;;13.70;99.90;;;;;;5043788;28;20037;-82
2022/06/18 04:15:19;;;;;;;1999.90;999.90;;;13.80;99.90;;;;;;5033871;28;20297;-81
2022/06/18 04:17:45;;;;;;;1999.90;999.90;;;13.90;99.90;;;;;;5043539;28;20079;-81
2022/06/18 04:20:26;;;;;;;1999.90;999.90;;;13.80;99.90;;;;;;5042750;28;20053;-81
2022/06/18 04:22:52;;;;;;;1999.90;999.90;;;14.00;99.90;;;;;;5026658;28;20051;-81
2022/06/18 04:25:18;;;;;;;1999.90;999.90;;;14.10;99.90;;;;;;5040370;28;20033;-81
2022/06/18 04:27:44;;;;;;;1999.90;999.90;;;14.20;99.90;;;;;;5036628;28;20040;-80
2022/06/18 04:30:11;;;;;;;1999.90;999.90;;;14.20;99.70;;;;;;5035063;28;20070;-81
2022/06/18 04:32:37;;;;;;;1999.90;999.90;;;14.30;99.90;;;;;;5030132;28;20515;-82
2022/06/18 04:35:06;;;;;;;1999.90;999.90;;;14.40;99.60;;;;;;5030449;28;20051;-81
2022/06/18 04:37:32;;;;;;;1999.90;999.90;;;14.60;98.90;;;;;;5013227;28;20033;-81
2022/06/18 04:39:58;;;;;;;1999.90;999.90;;;14.70;98.20;;;;;;5034361;28;20036;-81
2022/06/18 04:42:25;;;;;;;1999.90;999.90;;;14.70;98.80;;;;;;5034784;28;20753;-80
2022/06/18 04:44:51;;;;;;;1999.90;999.90;;;14.90;98.30;;;;;;5042658;28;20503;-90
2022/06/18 04:47:17;;;;;;;1999.90;999.90;;;14.90;99.20;;;;;;5023789;28;20036;-80
2022/06/18 04:49:43;;;;;;;1999.90;999.90;;;15.10;97.90;;;;;;5043235;28;20485;-81
2022/06/18 04:52:09;;;;;;;1999.90;999.90;;;15.30;97.00;;;;;;5043289;28;20036;-80
2022/06/18 04:54:34;;;;;;;1999.90;999.90;;;15.40;96.60;;;;;;5021611;28;20496;-80
2022/06/18 04:57:00;;;;;;;1999.90;999.90;;;15.50;95.00;;;;;;5039881;28;20041;-81
2022/06/18 04:59:26;;;;;;;1999.90;999.90;;;15.80;95.70;;;;;;5033524;28;20373;-80
2022/06/18 05:02:07;;;;;;;1999.90;999.90;;;16.00;93.70;;;;;;5038672;28;20497;-80
2022/06/18 05:04:32;;;;;;;1999.90;999.90;;;16.10;96.20;;;;;;5031325;28;20076;-80
2022/06/18 05:06:58;;;;;;;1999.90;999.90;;;16.20;93.10;;;;;;5038600;28;20492;-80
2022/06/18 05:09:24;;;;;;;1999.90;999.90;;;16.30;92.10;;;;;;5034592;28;20136;-81
2022/06/18 05:11:50;;;;;;;1999.90;999.90;;;16.50;93.30;;;;;;5032108;28;20039;-81
2022/06/18 05:14:16;;;;;;;1999.90;999.90;;;16.50;92.40;;;;;;5054840;28;20037;-81
2022/06/18 05:16:43;;;;;;;1999.90;999.90;;;16.60;92.30;;;;;;5041550;28;20112;-82
2022/06/18 05:19:24;;;;;;;1999.90;999.90;;;16.70;92.40;;;;;;5042942;28;20036;-81
2022/06/18 05:21:51;;;;;;;1999.90;999.90;;;16.90;91.10;;;;;;5041740;28;20017;-81
2022/06/18 05:24:17;;;;;;;1999.90;999.90;;;16.90;91.00;;;;;;5034931;28;20762;-82
2022/06/18 05:26:50;;;;;;;1999.90;999.90;;;17.00;92.40;;;;;;5034405;28;20120;-81
2022/06/18 05:29:17;;;;;;;1999.90;999.90;;;17.00;92.20;;;;;;5035954;28;20032;-81
2022/06/18 05:31:43;;;;;;;1999.90;999.90;;;17.10;90.60;;;;;;5037722;28;20505;-81
2022/06/18 05:34:09;;;;;;;1999.90;999.90;;;17.10;89.20;;;;;;5032575;28;20033;-80
2022/06/18 05:36:35;;;;;;;1999.90;999.90;;;17.10;88.60;;;;;;5028827;28;20032;-85
2022/06/18 05:39:01;;;;;;;1999.90;999.90;;;17.20;91.00;;;;;;5033287;28;20029;-81
2022/06/18 05:41:27;;;;;;;1999.90;999.90;;;17.30;90.10;;;;;;5034261;28;20128;-81
2022/06/18 05:43:53;;;;;;;1999.90;999.90;;;17.40;93.50;;;;;;5036421;28;20050;-81
2022/06/18 05:46:19;;;;;;;1999.90;999.90;;;17.50;91.80;;;;;;5025839;28;20072;-80
2022/06/18 05:48:45;;;;;;;1999.90;999.90;;;17.60;94.20;;;;;;5032758;28;20034;-86
2022/06/18 05:51:11;;;;;;;1999.90;999.90;;;17.80;94.40;;;;;;5034474;28;20083;-81
2022/06/18 05:53:37;;;;;;;1999.90;999.90;;;17.90;90.40;;;;;;5035899;28;20036;-81
2022/06/18 05:56:02;;;;;;;1999.90;999.90;;;18.00;90.60;;;;;;5035058;28;20044;-82
2022/06/18 05:58:29;;;;;;;1999.90;999.90;;;18.20;91.90;;;;;;5039669;28;20041;-82
2022/06/18 06:00:54;;;;;;;1999.90;999.90;;;18.30;86.50;;;;;;5036747;28;20136;-82
2022/06/18 06:03:20;;;;;;;1999.90;999.90;;;18.30;85.90;;;;;;5032288;28;20120;-82
2022/06/18 06:05:46;;;;;;;1999.90;999.90;;;18.40;81.40;;;;;;5035194;28;20507;-81
2022/06/18 06:08:13;;;;;;;1999.90;999.90;;;18.50;87.80;;;;;;5034815;28;20037;-79
2022/06/18 06:13:24;;;;;;;1999.90;999.90;;;18.60;85.50;;;;;;5047629;28;20032;-81
2022/06/18 06:15:51;;;;;;;1999.90;999.90;;;18.80;81.50;;;;;;5027408;28;20018;-81
2022/06/18 06:18:19;;;;;;;1999.90;999.90;;;18.90;89.60;;;;;;5022146;28;20145;-81
2022/06/18 06:20:47;;;;;;;1999.90;999.90;;;19.00;82.10;;;;;;5032901;28;20578;-82
2022/06/18 06:23:14;;;;;;;1999.90;999.90;;;19.10;78.80;;;;;;5034798;28;20018;-82
2022/06/18 06:25:42;;;;;;;1999.90;999.90;;;19.20;78.00;;;;;;5025412;28;20053;-81
2022/06/18 06:28:11;;;;;;;1999.90;999.90;;;19.40;78.60;;;;;;5027404;28;20026;-80
2022/06/18 06:30:38;;;;;;;1999.90;999.90;;;19.40;80.90;;;;;;5032710;28;20095;-81
2022/06/18 06:33:04;;;;;;;1999.90;999.90;;;19.50;82.00;;;;;;5013979;28;20708;-81
2022/06/18 06:35:30;;;;;;;1999.90;999.90;;;19.60;78.70;;;;;;5027674;28;20025;-81
2022/06/18 06:37:55;;;;;;;1999.90;999.90;;;19.80;78.90;;;;;;5032108;28;20443;-80
2022/06/18 06:40:22;;;;;;;1999.90;999.90;;;19.80;79.20;;;;;;5025397;28;20037;-81
2022/06/18 06:42:50;;;;;;;1999.90;999.90;;;19.90;78.90;;;;;;5028994;28;20032;-80
2022/06/18 06:45:22;;;;;;;1999.90;999.90;;;20.00;78.80;;;;;;5031514;28;20075;-81
2022/06/18 06:47:48;;;;;;;1999.90;999.90;;;20.20;76.30;;;;;;5027233;28;20053;-80
2022/06/18 06:50:16;;;;;;;1999.90;999.90;;;20.30;75.50;;;;;;5032175;28;20083;-84
2022/06/18 06:52:44;;;;;;;1999.90;999.90;;;20.40;76.10;;;;;;5031055;28;20113;-81
2022/06/18 06:57:59;;;;;;;1999.90;999.90;;;20.70;77.00;;;;;;5028537;28;20044;-80
2022/06/18 07:00:25;;;;;;;1999.90;999.90;;;20.90;75.80;;;;;;5024088;28;20057;-81
2022/06/18 07:02:51;;;;;;;1999.90;999.90;;;21.00;71.70;;;;;;5031051;28;20732;-81
2022/06/18 07:05:16;;;;;;;1999.90;999.90;;;21.10;67.90;;;;;;5030394;28;20108;-80
2022/06/18 07:07:42;;;;;;;1999.90;999.90;;;21.20;69.90;;;;;;5024460;28;20488;-79
2022/06/18 07:10:10;;;;;;;1999.90;999.90;;;21.20;65.20;;;;;;5026238;28;20095;-84
2022/06/18 07:12:37;;;;;;;1999.90;999.90;;;21.40;67.00;;;;;;5026448;28;20128;-79
2022/06/18 07:15:03;;;;;;;1999.90;999.90;;;21.60;67.00;;;;;;5026804;28;20083;-80
2022/06/18 07:17:30;;;;;;;1999.90;999.90;;;21.80;69.00;;;;;;5036928;28;20025;-80
2022/06/18 07:19:56;;;;;;;1999.90;999.90;;;21.90;66.60;;;;;;5026218;28;20044;-80
2022/06/18 07:22:22;;;;;;;1999.90;999.90;;;22.00;64.90;;;;;;5026810;28;20037;-81
2022/06/18 07:24:47;;;;;;;1999.90;999.90;;;22.00;62.90;;;;;;5026308;28;20026;-82
2022/06/18 07:27:13;;;;;;;1999.90;999.90;;;22.10;65.90;;;;;;5030035;28;20033;-78
2022/06/18 07:29:39;;;;;;;1999.90;999.90;;;22.30;67.80;;;;;;5030006;28;20656;-78
2022/06/18 07:32:07;;;;;;;1999.90;999.90;;;22.40;62.70;;;;;;5013204;28;20132;-78
2022/06/18 07:34:33;;;;;;;1999.90;999.90;;;22.60;65.70;;;;;;5030339;28;20033;-79
2022/06/18 07:36:58;;;;;;;1999.90;999.90;;;22.60;62.70;;;;;;5029197;28;20040;-78
2022/06/18 07:39:24;;;;;;;1999.90;999.90;;;22.70;60.00;;;;;;5022167;28;20417;-75
2022/06/18 07:41:53;;;;;;;1999.90;999.90;;;22.90;61.50;;;;;;5032103;28;20056;-75
2022/06/18 07:44:19;;;;;;;1999.90;999.90;;;22.90;59.20;;;;;;5030921;28;20049;-73
2022/06/18 07:46:48;;;;;;;1999.90;999.90;;;23.00;60.00;;;;;;5027158;28;20033;-74
2022/06/18 07:49:15;;;;;;;1999.90;999.90;;;23.10;57.20;;;;;;5029440;28;20033;-74
2022/06/18 07:51:41;;;;;;;1999.90;999.90;;;23.20;57.30;;;;;;5035881;28;20055;-74
2022/06/18 07:54:08;;;;;;;1999.90;999.90;;;23.30;59.60;;;;;;5035191;28;20496;-74
2022/06/18 07:56:34;;;;;;;1999.90;999.90;;;23.50;62.60;;;;;;5031931;28;20043;-75
2022/06/18 07:58:59;;;;;;;1999.90;999.90;;;23.70;60.60;;;;;;5029759;28;20886;-75
2022/06/18 08:01:25;;;;;;;1999.90;999.90;;;23.80;61.00;;;;;;5024195;28;20497;-75
2022/06/18 08:03:51;;;;;;;1999.90;999.90;;;24.00;60.00;;;;;;5026658;28;20038;-75
2022/06/18 08:06:17;;;;;;;1999.90;999.90;;;24.00;60.30;;;;;;5027049;28;20037;-74
2022/06/18 08:08:42;;;;;;;1999.90;999.90;;;24.10;58.10;;;;;;5021283;28;20037;-74
2022/06/18 08:11:14;;;;;;;1999.90;999.90;;;24.30;56.00;;;;;;5024596;28;20037;-75
2022/06/18 08:13:40;;;;;;;1999.90;999.90;;;24.20;57.40;;;;;;5024995;28;20480;-73
2022/06/18 08:16:06;;;;;;;1999.90;999.90;;;24.50;54.90;;;;;;5037121;28;20111;-74
2022/06/18 08:18:32;;;;;;;1999.90;999.90;;;24.60;57.00;;;;;;5023208;28;20441;-74
2022/06/18 08:21:05;;;;;;;1999.90;999.90;;;24.80;54.80;;;;;;5039803;28;20048;-74
2022/06/18 08:23:31;;;;;;;1999.90;999.90;;;24.80;51.80;;;;;;5028401;28;20028;-73
2022/06/18 08:25:57;;;;;;;1999.90;999.90;;;25.00;52.20;;;;;;5027750;28;20068;-74
2022/06/18 08:28:22;;;;;;;1999.90;999.90;;;25.10;53.00;;;;;;5028708;28;20057;-73
2022/06/18 08:30:48;;;;;;;1999.90;999.90;;;25.40;55.40;;;;;;5031637;28;20030;-75
2022/06/18 08:33:15;;;;;;;1999.90;999.90;;;25.50;55.30;;;;;;5031019;28;20282;-75
2022/06/18 08:35:40;;;;;;;1999.90;999.90;;;25.60;52.30;;;;;;5024703;28;20026;-75
2022/06/18 08:38:08;;;;;;;1180.30;237.32;;;25.70;51.50;;;;;;5029069;28;20382;-75
2022/06/18 08:40:55;;;;;;;1999.90;999.90;;;25.70;55.80;;;;;;5027422;28;20029;-75
2022/06/18 08:43:50;;;;;;;1999.90;999.90;;;25.80;57.50;;;;;;5026236;28;20026;-74
2022/06/18 08:46:18;;;;;;;1999.90;999.90;;;25.70;56.90;;;;;;5028176;28;20038;-74
2022/06/18 08:49:07;;;;;;;1999.90;999.90;;;25.90;50.50;;;;;;5036443;28;20503;-75
2022/06/18 08:52:00;;;;;;;1999.90;999.90;;;25.80;55.70;;;;;;5026688;28;20037;-74
2022/06/18 08:54:50;;;;;;;1999.90;999.90;;;26.20;50.80;;;;;;5030124;28;20480;-74
2022/06/18 08:57:27;;;;;;;1999.90;999.90;;;26.40;55.10;;;;;;5023833;28;20021;-80
2022/06/18 09:00:24;;;;;;;1999.90;999.90;;;26.70;51.60;;;;;;5029921;28;20516;-77
2022/06/18 09:03:03;;;;;;;1999.90;999.90;;;26.80;48.30;;;;;;5026577;28;20034;-78
2022/06/18 09:05:50;;;;;;;1999.90;999.90;;;26.90;52.20;;;;;;5027744;28;20029;-76
2022/06/18 09:08:38;;;;;;;1999.90;999.90;;;27.00;48.00;;;;;;5024546;28;20041;-78
2022/06/18 09:11:07;;;;;;;1999.90;999.90;;;27.10;47.80;;;;;;5031246;28;20053;-78
2022/06/18 09:13:48;;;;;;;1999.90;999.90;;;27.30;44.10;;;;;;5039077;28;20021;-79
2022/06/18 09:16:18;;;;;;;1999.90;999.90;;;27.60;43.20;;;;;;5031906;28;20161;-78
2022/06/18 09:18:52;;;;;;;1999.90;999.90;;;27.40;44.30;;;;;;5035996;28;20029;-78
2022/06/18 09:21:45;;;;;;;1999.90;999.90;;;27.40;48.50;;;;;;5040511;28;20034;-77
2022/06/18 09:24:19;;;;;;;1999.90;999.90;;;27.60;43.10;;;;;;5029166;28;20105;-77
2022/06/18 09:26:50;;;;;;;1999.90;999.90;;;27.70;45.80;;;;;;5055079;28;20140;-89
2022/06/18 09:29:34;;;;;;;1999.90;999.90;;;28.30;43.40;;;;;;5028508;28;20790;-80
2022/06/18 09:32:15;;;;;;;1999.90;999.90;;;28.60;44.20;;;;;;5025137;28;20067;-79
2022/06/18 09:34:51;;;;;;;1999.90;999.90;;;28.30;38.80;;;;;;5019420;28;20038;-79
2022/06/18 09:37:23;;;;;;;1999.90;999.90;;;28.50;38.90;;;;;;5008656;28;20115;-80
2022/06/18 09:39:54;;;;;;;1999.90;999.90;;;28.80;44.20;;;;;;5026716;28;20034;-80
2022/06/18 09:42:42;;;;;;;1999.90;999.90;;;28.80;40.70;;;;;;5033469;28;20029;-80
2022/06/18 09:45:28;;;;;;;1999.90;999.90;;;28.70;41.60;;;;;;5031058;28;20100;-80
2022/06/18 09:47:54;;;;;;;1999.90;999.90;;;29.10;43.40;;;;;;5035039;28;20035;-79
2022/06/18 09:50:37;;;;;;;1999.90;999.90;;;29.00;38.10;;;;;;5034100;28;20302;-80
2022/06/18 09:53:12;;;;;;;1999.90;999.90;;;29.30;40.10;;;;;;5026968;28;20409;-80
2022/06/18 09:55:48;;;;;;;1999.90;999.90;;;29.20;41.30;;;;;;5024851;28;20025;-80
2022/06/18 09:58:26;;;;;;;1999.90;999.90;;;29.40;37.70;;;;;;5023006;28;20025;-80
2022/06/18 10:00:55;;;;;;;1999.90;999.90;;;29.60;36.20;;;;;;5021905;28;20048;-82
2022/06/18 10:09:02;;;;;;;1999.90;999.90;;;29.60;38.70;;;;;;5022391;28;20068;-81
2022/06/18 10:11:27;;;;;;;1999.90;999.90;;;30.10;39.70;;;;;;5029296;28;20037;-80
2022/06/18 10:13:59;;;;;;;1999.90;999.90;;;30.20;36.50;;;;;;5028366;28;20030;-79
2022/06/18 10:16:33;;;;;;;1999.90;999.90;;;29.90;35.50;;;;;;5033749;28;20060;-79
2022/06/18 10:19:20;;;;;;;1999.90;999.90;;;30.00;38.70;;;;;;5053439;28;20025;-81
2022/06/18 10:21:56;;;;;;;1999.90;999.90;;;29.80;38.40;;;;;;5024032;28;20025;-79
2022/06/18 10:24:38;;;;;;;1999.90;999.90;;;30.10;36.30;;;;;;5028814;28;20028;-80
2022/06/18 10:27:13;;;;;;;1999.90;999.90;;;30.60;35.60;;;;;;5017033;28;20101;-80
2022/06/18 10:30:07;;;;;;;1999.90;999.90;;;30.80;40.60;;;;;;5030060;28;20052;-88
2022/06/18 10:33:03;;;;;;;1999.90;999.90;;;30.80;34.40;;;;;;5024451;28;20119;-83
2022/06/18 10:35:47;;;;;;;1999.90;999.90;;;30.00;39.30;;;;;;5027659;28;20174;-82
2022/06/18 10:38:40;;;;;;;1999.90;999.90;;;30.60;38.50;;;;;;5027729;28;20584;-82
2022/06/18 10:41:28;;;;;;;1999.90;999.90;;;30.80;36.20;;;;;;5028884;28;20051;-87
2022/06/18 10:44:08;;;;;;;1999.90;999.90;;;31.00;34.60;;;;;;5028645;28;20518;-77
2022/06/18 10:46:34;;;;;;;1999.90;999.90;;;31.70;35.50;;;;;;5022830;28;20032;-80
2022/06/18 10:49:03;;;;;;;1999.90;999.90;;;31.70;38.50;;;;;;5026117;28;20033;-79
2022/06/18 10:51:41;;;;;;;1999.90;999.90;;;31.60;35.80;;;;;;5029669;28;20029;-80
2022/06/18 10:54:06;;;;;;;1999.90;999.90;;;31.80;35.00;;;;;;5024274;28;20029;-79
2022/06/18 10:56:45;;;;;;;1999.90;999.90;;;31.20;34.50;;;;;;5033752;28;20060;-81
2022/06/18 10:59:10;;;;;;;1999.90;999.90;;;31.60;35.00;;;;;;5024595;28;20029;-80
2022/06/18 11:01:44;;;;;;;1999.90;999.90;;;32.20;33.50;;;;;;5008548;28;20044;-80
2022/06/18 11:04:22;;;;;;;1999.90;999.90;;;32.10;32.40;;;;;;5049362;28;20036;-80
2022/06/18 11:06:53;;;;;;;1999.90;896.38;;;32.80;33.30;;;;;;5027872;28;20026;-79
2022/06/18 11:09:31;;;;;;;1999.90;983.50;;;32.80;31.10;;;;;;5028098;28;20048;-81
2022/06/18 11:12:05;;;;;;;1999.90;913.10;;;33.50;32.20;;;;;;5060757;28;20053;-79
2022/06/18 11:14:40;;;;;;;1999.90;995.38;;;33.80;31.10;;;;;;5040751;28;20090;-80
2022/06/18 11:17:28;;;;;;;1999.90;842.35;;;34.10;33.30;;;;;;5037202;28;20037;-81
2022/06/18 11:19:54;;;;;;;1999.90;999.90;;;34.60;29.50;;;;;;5032672;28;20136;-80
2022/06/18 11:22:28;;;;;;;1999.90;999.22;;;34.40;29.70;;;;;;5027738;28;20135;-81
2022/06/18 11:25:03;;;;;;;1999.90;958.17;;;35.00;27.70;;;;;;5033582;28;20021;-81
2022/06/18 11:27:37;;;;;;;1999.90;962.20;;;35.10;28.30;;;;;;5032768;28;20057;-80
2022/06/18 11:30:21;;;;;;;1999.90;999.90;;;34.90;29.70;;;;;;5029346;28;20044;-79
2022/06/18 11:32:48;;;;;;;1999.90;941.63;;;34.50;25.80;;;;;;5032836;28;20144;-80
2022/06/18 11:35:24;;;;;;;1999.90;995.10;;;33.70;31.20;;;;;;5035094;28;20042;-79
2022/06/18 11:38:02;;;;;;;1999.90;995.38;;;34.10;30.10;;;;;;5032747;28;20079;-80
2022/06/18 11:40:28;;;;;;;1999.90;999.90;;;34.70;26.30;;;;;;5031657;28;20084;-78
2022/06/18 11:43:24;;;;;;;1999.90;999.90;;;35.10;27.70;;;;;;5026850;28;20068;-78
2022/06/18 11:46:00;;;;;;;1999.90;999.90;;;35.70;24.60;;;;;;5011442;28;20552;-81
2022/06/18 11:48:50;;;;;;;1999.90;999.90;;;34.90;24.80;;;;;;5067683;28;20488;-80
2022/06/18 11:51:38;;;;;;;1999.90;999.90;;;34.70;28.60;;;;;;5032708;28;20033;-83
2022/06/18 11:54:15;;;;;;;1999.90;999.90;;;35.40;28.50;;;;;;5034296;28;20040;-79
2022/06/18 11:56:47;;;;;;;1999.90;999.90;;;36.60;24.20;;;;;;5032215;28;20037;-81
2022/06/18 11:59:24;;;;;;;1999.90;999.90;;;36.00;24.80;;;;;;5025311;28;20040;-79
2022/06/18 12:01:59;;;;;;;1999.90;999.90;;;36.60;25.60;;;;;;5023647;28;20110;-79
2022/06/18 12:04:41;;;;;;;1999.90;999.90;;;36.90;23.20;;;;;;5021727;28;20041;-90
2022/06/18 12:07:18;;;;;;;1999.90;999.90;;;36.30;23.30;;;;;;5020815;28;20029;-80
2022/06/18 12:09:44;;;;;;;1999.90;999.90;;;36.80;24.20;;;;;;5026424;28;20174;-78
2022/06/18 12:12:18;;;;;;;1999.90;999.90;;;36.90;25.90;;;;;;5028819;28;20492;-78
2022/06/18 12:14:55;;;;;;;1999.90;999.90;;;36.70;24.50;;;;;;5026678;28;20014;-79
2022/06/18 12:17:36;;;;;;;1999.90;999.90;;;37.60;26.20;;;;;;5025211;28;20116;-78
2022/06/18 12:20:24;;;;;;;1999.90;999.90;;;37.30;25.30;;;;;;5019540;28;20037;-80
2022/06/18 12:23:05;;;;;;;1999.90;999.90;;;37.80;24.30;;;;;;5007368;28;20073;-79
2022/06/18 12:25:56;;;;;;;1999.90;999.90;;;37.80;25.50;;;;;;5022700;28;20029;-77
2022/06/18 12:28:38;;;;;;;1999.90;999.90;;;37.20;25.30;;;;;;5018256;28;20037;-78
2022/06/18 12:31:07;;;;;;;1999.90;999.90;;;37.00;26.50;;;;;;5014978;28;20168;-79
2022/06/18 12:33:38;;;;;;;1999.90;872.72;;;36.80;24.10;;;;;;5021663;28;20052;-78
2022/06/18 12:36:14;;;;;;;1999.90;999.90;;;38.20;24.00;;;;;;5018016;28;20026;-77
2022/06/18 12:39:01;;;;;;;1999.90;999.90;;;38.20;25.30;;;;;;5021519;28;20021;-80